Time;durP1;ratioP1;P1;durP2;ratioP2;P2;SDS_P1;SDS_P2;PMS_P1;PMS_P2;Temp;Humidity;BMP_temperature;BMP_pressure;BME280_temperature;BME280_humidity;BME280_pressure;Samples;Min_cycle;Max_cycle;Signal;HPM_P1;HPM_P2
2022/04/20 00:02:07;;;;;;;4.72;3.10;;;;;;;6.76;63.34;100015.78;4740134;30;20504;-77
2022/04/20 00:04:34;;;;;;;6.45;4.38;;;;;;;6.49;62.92;99975.91;4739272;30;20498;-79
2022/04/20 00:07:00;;;;;;;10.25;5.88;;;;;;;6.73;63.37;100026.13;4736036;30;20044;-78
2022/04/20 00:09:27;;;;;;;7.45;4.93;;;;;;;6.49;62.17;99991.41;4735662;30;20052;-80
2022/04/20 00:11:53;;;;;;;7.35;4.32;;;;;;;6.52;62.85;99990.56;4736813;30;20051;-78
2022/04/20 00:14:19;;;;;;;5.90;4.00;;;;;;;6.63;62.82;100018.25;4741006;30;20052;-79
2022/04/20 00:16:45;;;;;;;6.30;3.42;;;;;;;6.58;62.58;100014.75;4740131;30;20040;-82
2022/04/20 00:19:11;;;;;;;6.90;3.75;;;;;;;6.53;62.60;100011.25;4735396;30;20060;-80
2022/04/20 00:21:37;;;;;;;4.70;2.88;;;;;;;6.55;62.58;100008.69;4735901;30;20053;-82
2022/04/20 00:24:03;;;;;;;6.07;3.03;;;;;;;6.52;63.46;100004.34;4739202;30;20052;-82
2022/04/20 00:26:29;;;;;;;4.95;3.08;;;;;;;6.43;63.19;99978.41;4737665;30;20197;-82
2022/04/20 00:28:56;;;;;;;5.57;2.40;;;;;;;6.58;62.66;100014.75;4744715;30;20499;-80
2022/04/20 00:31:22;;;;;;;5.75;2.30;;;;;;;6.55;62.90;100013.88;4746685;30;20055;-79
2022/04/20 00:33:47;;;;;;;3.88;2.10;;;;;;;6.52;62.95;100006.06;4760556;30;20055;-78
2022/04/20 00:36:14;;;;;;;4.95;2.35;;;;;;;6.48;63.04;100012.94;4736031;29;20048;-79
2022/04/20 00:38:40;;;;;;;3.88;2.60;;;;;;;6.29;63.34;99973.06;4760095;29;20044;-78
2022/04/20 00:41:08;;;;;;;5.75;2.58;;;;;;;6.41;62.68;100024.91;4752175;30;20045;-80
2022/04/20 00:43:33;;;;;;;4.82;2.85;;;;;;;6.16;62.30;99997.91;4737921;30;20166;-80
2022/04/20 00:46:00;;;;;;;5.32;2.50;;;;;;;6.15;63.63;99996.16;4735976;30;20134;-80
2022/04/20 00:48:27;;;;;;;7.38;3.00;;;;;;;6.15;62.38;99991.88;4736711;30;20065;-79
2022/04/20 00:50:54;;;;;;;4.35;2.95;;;;;;;6.27;63.07;100001.50;4737116;30;20453;-79
2022/04/20 00:53:20;;;;;;;4.03;2.70;;;;;;;6.36;63.51;100017.94;4735313;30;20059;-81
2022/04/20 00:55:48;;;;;;;3.78;2.60;;;;;;;6.28;62.90;100007.53;4749376;30;20189;-79
2022/04/20 00:58:14;;;;;;;4.35;2.55;;;;;;;6.14;63.08;100004.75;4751214;30;20154;-80
2022/04/20 01:00:40;;;;;;;4.20;2.53;;;;;;;6.19;63.10;100010.88;4738032;30;20048;-80
2022/04/20 01:03:06;;;;;;;3.92;2.53;;;;;;;6.23;63.09;100014.34;4749772;30;20044;-82
2022/04/20 01:05:52;;;;;;;3.25;2.13;;;;;;;6.03;62.72;99978.78;4735963;30;20056;-82
2022/04/20 01:08:37;;;;;;;4.30;2.67;;;;;;;6.21;63.18;100003.13;4751512;30;20071;-81
2022/04/20 01:11:42;;;;;;;5.50;2.83;;;;;;;6.21;62.41;100000.53;4729499;30;20055;-79
2022/04/20 01:14:17;;;;;;;4.60;2.70;;;;;;;6.17;62.24;100007.41;4751926;30;20049;-78
2022/04/20 01:17:03;;;;;;;5.68;3.08;;;;;;;6.08;62.58;99996.94;4735068;30;20044;-78
2022/04/20 01:19:54;;;;;;;5.60;3.17;;;;;;;6.15;62.01;100019.41;4744560;30;20429;-78
2022/04/20 01:22:20;;;;;;;6.15;3.40;;;;;;;6.11;62.27;100007.31;4735104;30;20588;-78
2022/04/20 01:25:24;;;;;;;4.47;3.13;;;;;;;5.98;62.08;99983.00;4743943;30;20052;-79
2022/04/20 01:28:04;;;;;;;6.70;3.10;;;;;;;5.91;62.36;99963.97;4714652;30;20048;-82
2022/04/20 01:30:56;;;;;;;4.80;3.25;;;;;;;5.85;62.09;99962.19;4729946;30;20065;-80
2022/04/20 01:33:31;;;;;;;5.95;3.50;;;;;;;5.92;61.94;99982.94;4733398;30;20078;-81
2022/04/20 01:35:57;;;;;;;5.93;3.25;;;;;;;5.88;62.60;99980.31;4724636;30;20425;-80
2022/04/20 01:38:24;;;;;;;4.85;2.90;;;;;;;5.86;62.58;99975.94;4724865;30;20040;-81
2022/04/20 01:40:50;;;;;;;6.88;2.88;;;;;;;5.65;62.50;99945.56;4757879;30;20063;-79
2022/04/20 01:43:16;;;;;;;5.63;2.83;;;;;;;5.71;62.40;99956.84;4744982;30;20763;-79
2022/04/20 01:45:58;;;;;;;4.45;2.92;;;;;;;5.69;62.75;99958.53;4754949;30;20056;-79
2022/04/20 01:48:44;;;;;;;3.88;2.88;;;;;;;5.61;62.22;99944.66;4736921;30;20056;-78
2022/04/20 01:51:47;;;;;;;4.57;2.47;;;;;;;5.77;62.50;99970.69;4753865;30;20056;-79
2022/04/20 01:54:31;;;;;;;2.67;2.28;;;;;;;5.65;62.57;99967.06;4740939;30;20048;-80
2022/04/20 01:57:16;;;;;;;6.63;2.60;;;;;;;5.59;62.00;99961.84;4743414;30;20074;-79
2022/04/20 02:00:16;;;;;;;4.10;2.78;;;;;;;5.50;62.16;99949.69;4748004;30;20465;-79
2022/04/20 02:03:08;;;;;;;3.50;2.60;;;;;;;5.60;62.21;99975.59;4738492;30;20056;-80
2022/04/20 02:05:57;;;;;;;3.80;2.42;;;;;;;5.43;62.22;99948.69;4749273;30;20056;-79
2022/04/20 02:08:39;;;;;;;4.25;2.33;;;;;;;5.62;62.21;99968.75;4749775;30;20124;-78
2022/04/20 02:11:05;;;;;;;4.63;2.25;;;;;;;5.39;61.85;99930.56;4766914;30;20072;-81
2022/04/20 02:13:32;;;;;;;4.03;2.58;;;;;;;5.65;61.90;99977.41;4762423;30;20113;-80
2022/04/20 02:16:02;;;;;;;3.47;2.42;;;;;;;5.55;61.97;99960.91;4760393;29;20088;-78
2022/04/20 02:18:54;;;;;;;4.30;2.30;;;;;;;5.51;61.37;99955.69;4753157;30;20506;-80
2022/04/20 02:21:49;;;;;;;6.57;2.42;;;;;;;5.49;60.92;99952.22;4735596;30;20046;-80
2022/04/20 02:24:15;;;;;;;2.78;2.08;;;;;;;5.63;61.51;99971.34;4753017;30;20048;-80
2022/04/20 02:26:42;;;;;;;6.30;2.40;;;;;;;5.69;61.55;99980.91;4727253;30;20059;-80
2022/04/20 02:29:08;;;;;;;5.40;2.50;;;;;;;5.60;61.13;99954.94;4752086;30;20060;-81
2022/04/20 02:31:34;;;;;;;3.13;2.03;;;;;;;5.57;60.71;99956.66;4739782;30;20464;-81
2022/04/20 02:34:01;;;;;;;4.13;2.22;;;;;;;5.57;60.14;99948.91;4738720;30;20052;-80
2022/04/20 02:36:27;;;;;;;6.75;2.35;;;;;;;5.61;60.57;99948.94;4753128;30;20051;-80
2022/04/20 02:38:53;;;;;;;4.85;2.17;;;;;;;5.70;60.11;99970.59;4752133;30;20399;-81
2022/04/20 02:41:20;;;;;;;5.22;2.10;;;;;;;5.65;59.82;99961.91;4736909;30;20467;-78
2022/04/20 02:43:47;;;;;;;5.38;2.90;;;;;;;5.52;59.69;99941.94;4735887;30;20060;-81
2022/04/20 02:46:13;;;;;;;4.82;2.70;;;;;;;5.63;60.57;99963.59;4738339;30;20506;-81
2022/04/20 02:48:41;;;;;;;7.45;3.38;;;;;;;5.84;59.96;100000.91;4741400;30;20049;-81
2022/04/20 02:51:08;;;;;;;6.47;3.15;;;;;;;5.88;59.67;100003.56;4736913;30;20037;-82
2022/04/20 02:53:35;;;;;;;5.80;3.25;;;;;;;5.92;60.16;100001.88;4730607;30;20055;-80
2022/04/20 02:56:02;;;;;;;5.13;2.40;;;;;;;5.87;59.64;100000.94;4750856;30;20044;-81
2022/04/20 02:58:29;;;;;;;3.58;2.08;;;;;;;5.79;59.61;99984.50;4751227;30;20109;-81
2022/04/20 03:00:58;;;;;;;5.47;2.40;;;;;;;5.80;58.93;99993.97;4736474;30;20074;-80
2022/04/20 03:03:28;;;;;;;4.00;2.13;;;;;;;5.95;58.90;99995.91;4736610;30;20383;-79
2022/04/20 03:06:01;;;;;;;3.35;2.30;;;;;;;5.99;58.96;100003.69;4722018;30;20044;-78
2022/04/20 03:08:27;;;;;;;3.65;2.42;;;;;;;6.10;58.42;100006.44;4725644;30;20052;-81
2022/04/20 03:10:56;;;;;;;3.58;2.13;;;;;;;6.15;58.62;100003.91;4752149;30;20056;-80
2022/04/20 03:13:24;;;;;;;4.47;2.42;;;;;;;6.19;58.22;100005.69;4737808;30;20087;-78
2022/04/20 03:15:51;;;;;;;3.03;2.00;;;;;;;6.16;58.16;99979.81;4723806;30;20491;-81
2022/04/20 03:18:17;;;;;;;3.08;2.03;;;;;;;6.29;58.30;99999.78;4740683;30;20048;-80
2022/04/20 03:20:43;;;;;;;3.80;2.17;;;;;;;6.46;58.24;99999.97;4726621;30;20047;-81
2022/04/20 03:23:12;;;;;;;5.13;2.28;;;;;;;6.16;57.49;99938.47;4755878;30;20052;-80
2022/04/20 03:25:38;;;;;;;3.38;2.03;;;;;;;6.65;57.79;100000.16;4740823;30;20131;-81
2022/04/20 03:28:23;;;;;;;3.90;1.92;;;;;;;6.57;57.20;99963.03;4747069;30;20056;-78
2022/04/20 03:30:50;;;;;;;3.22;2.05;;;;;;;6.82;57.11;99986.56;4745829;30;20144;-79
2022/04/20 03:33:16;;;;;;;3.03;1.95;;;;;;;6.43;56.66;99911.19;4743894;30;20047;-78
2022/04/20 03:35:44;;;;;;;3.38;2.20;;;;;;;7.04;56.64;99995.38;4742546;30;20051;-79
2022/04/20 03:38:10;;;;;;;3.65;1.90;;;;;;;7.06;55.73;99985.91;4754958;30;20079;-85
2022/04/20 03:40:37;;;;;;;4.28;2.25;;;;;;;6.74;55.66;99903.69;4730801;30;20043;-82
2022/04/20 03:43:03;;;;;;;4.50;2.10;;;;;;;7.15;55.93;99954.03;4754818;30;20334;-81
2022/04/20 03:45:33;;;;;;;2.53;1.73;;;;;;;7.46;55.27;99978.44;4757998;30;20059;-81
2022/04/20 03:47:59;;;;;;;5.13;1.83;;;;;;;7.34;54.86;99931.75;4741022;30;20115;-83
2022/04/20 03:50:26;;;;;;;7.15;2.10;;;;;;;7.67;54.31;99963.88;4741897;30;20048;-82
2022/04/20 03:52:52;;;;;;;3.67;1.88;;;;;;;7.74;54.31;99960.47;4754723;30;20048;-84
2022/04/20 03:55:18;;;;;;;3.67;1.58;;;;;;;7.41;53.12;99883.47;4777917;29;20028;-80
2022/04/20 03:57:45;;;;;;;3.95;1.70;;;;;;;7.93;52.82;99951.06;4748024;30;20048;-81
2022/04/20 04:00:12;;;;;;;4.25;1.45;;;;;;;8.12;52.35;99958.91;4740383;30;20043;-80
2022/04/20 04:02:52;;;;;;;3.67;1.50;;;;;;;8.30;51.93;99952.91;4738909;30;20109;-78
2022/04/20 04:05:28;;;;;;;7.25;1.40;;;;;;;8.50;51.18;99972.88;4753565;30;20046;-81
2022/04/20 04:07:59;;;;;;;7.95;4.57;;;;;;;8.41;50.92;99924.41;4738476;30;20143;-80
2022/04/20 04:10:32;;;;;;;5.57;2.80;;;;;;;8.83;49.86;99946.13;4735708;30;20055;-81
2022/04/20 04:12:59;;;;;;;13.02;5.75;;;;;;;8.38;48.98;99834.53;4769621;30;20055;-81
2022/04/20 04:15:27;;;;;;;9.45;4.82;;;;;;;8.84;49.22;99879.53;4759678;30;20502;-80
2022/04/20 04:17:58;;;;;;;8.20;4.38;;;;;;;9.44;47.92;99939.16;4755984;30;20139;-80
2022/04/20 04:20:35;;;;;;;4.07;2.00;;;;;;;9.86;46.93;99974.56;4723094;30;20048;-78
2022/04/20 04:23:02;;;;;;;2.15;1.50;;;;;;;9.98;45.89;99979.72;4722256;30;20052;-82
2022/04/20 04:25:41;;;;;;;2.08;1.08;;;;;;;10.09;45.80;99975.34;4750945;30;20132;-81
2022/04/20 04:28:11;;;;;;;6.50;1.55;;;;;;;10.24;45.29;99964.03;4751468;30;20691;-81
2022/04/20 04:30:41;;;;;;;2.22;1.30;;;;;;;10.36;44.08;99970.91;4753825;30;20100;-83
2022/04/20 04:33:08;;;;;;;4.88;1.40;;;;;;;10.48;43.93;99987.34;4723905;30;20049;-80
2022/04/20 04:35:34;;;;;;;8.07;1.25;;;;;;;10.40;42.74;99997.78;4740917;30;20052;-79
2022/04/20 04:38:02;;;;;;;3.15;1.58;;;;;;;10.36;42.67;100009.91;4743256;30;20083;-82
2022/04/20 04:40:33;;;;;;;5.30;3.35;;;;;;;10.09;42.03;99935.47;4752817;30;20127;-79
2022/04/20 04:43:02;;;;;;;3.35;1.95;;;;;;;10.68;41.47;99985.47;4734205;30;20044;-80
2022/04/20 04:48:38;;;;;;;4.18;1.60;;;;;;;10.43;40.58;99935.34;4742504;30;20124;-80
2022/04/20 04:51:10;;;;;;;1.80;1.40;;;;;;;10.64;39.53;99983.75;4751381;30;20055;-77
2022/04/20 04:53:37;;;;;;;5.40;1.50;;;;;;;10.28;39.32;99961.38;4737486;30;20069;-82
2022/04/20 04:56:05;;;;;;;3.97;1.40;;;;;;;10.62;39.62;100016.72;4724610;30;20048;-80
2022/04/20 04:58:37;;;;;;;4.47;1.70;;;;;;;11.03;39.24;100027.78;4726132;30;20071;-80
2022/04/20 05:01:04;;;;;;;4.70;1.55;;;;;;;11.28;38.56;100022.38;4743417;30;20104;-80
2022/04/20 05:03:30;;;;;;;2.20;1.13;;;;;;;11.35;38.60;100011.03;4721606;30;20047;-81
2022/04/20 05:05:56;;;;;;;3.80;1.77;;;;;;;11.38;38.39;99991.91;4744248;30;20061;-78
2022/04/20 05:08:57;;;;;;;5.18;1.50;;;;;;;11.82;38.14;100006.22;4732421;30;20054;-78
2022/04/20 05:11:23;;;;;;;4.15;2.15;;;;;;;11.80;37.65;99994.09;4758482;30;20051;-81
2022/04/20 05:13:52;;;;;;;4.20;2.22;;;;;;;12.16;37.35;99974.56;4759394;30;20282;-80
2022/04/20 05:16:19;;;;;;;1.75;1.30;;;;;;;13.06;36.73;99985.47;4750739;30;20086;-78
2022/04/20 05:18:45;;;;;;;5.38;1.60;;;;;;;14.68;35.26;99994.63;4748636;30;20051;-82
2022/04/20 05:21:11;;;;;;;3.95;1.80;;;;;;;16.56;32.30;99959.03;4763204;30;20134;-82
2022/04/20 05:23:37;;;;;;;3.50;1.42;;;;;;;18.53;31.07;100001.44;4760539;30;20051;-82
2022/04/20 05:26:03;;;;;;;6.68;1.70;;;;;;;19.98;29.57;99975.25;4721811;30;20106;-80
2022/04/20 05:28:31;;;;;;;4.88;1.40;;;;;;;21.46;27.17;99984.97;4766134;30;20067;-84
2022/04/20 05:30:57;;;;;;;6.25;1.77;;;;;;;22.49;26.17;99977.81;4760252;29;20086;-79
2022/04/20 05:33:24;;;;;;;8.13;1.75;;;;;;;23.40;24.60;99972.59;4741196;30;20044;-83
2022/04/20 05:35:50;;;;;;;4.53;1.30;;;;;;;24.28;23.68;99987.66;4761533;30;20058;-81
2022/04/20 05:43:51;;;;;;;5.60;1.60;;;;;;;25.52;21.67;99970.75;4739806;30;20056;-80
2022/04/20 05:46:24;;;;;;;7.13;1.60;;;;;;;26.08;20.14;99983.72;4737579;30;20064;-80
2022/04/20 05:49:05;;;;;;;4.80;1.35;;;;;;;26.25;20.26;100001.22;4724174;30;20266;-81
2022/04/20 05:51:31;;;;;;;4.60;1.63;;;;;;;26.65;19.59;99991.28;4753696;30;20548;-80
2022/04/20 05:53:58;;;;;;;5.15;1.30;;;;;;;27.59;18.93;99978.06;4752057;30;20090;-82
2022/04/20 05:56:29;;;;;;;2.38;1.23;;;;;;;27.61;18.26;99970.78;4738305;30;20064;-83
2022/04/20 05:58:55;;;;;;;4.07;1.10;;;;;;;28.68;17.73;100005.16;4739146;30;20071;-79
2022/04/20 06:01:24;;;;;;;3.85;1.30;;;;;;;29.59;17.28;100008.31;4738146;30;20051;-82
2022/04/20 06:04:11;;;;;;;12.18;1.80;;;;;;;29.95;17.07;100018.66;4731463;30;20048;-82
2022/04/20 06:07:22;;;;;;;3.08;1.33;;;;;;;29.15;16.65;99968.22;4700943;30;20087;-79
2022/04/20 06:10:12;;;;;;;2.13;1.08;;;;;;;29.88;16.37;100017.50;4734766;30;20071;-78
2022/04/20 06:12:57;;;;;;;4.07;1.17;;;;;;;30.65;15.82;100008.06;4738321;30;20040;-81
2022/04/20 06:15:46;;;;;;;1.88;1.50;;;;;;;30.45;15.59;99974.09;4725837;30;20063;-82
2022/04/20 06:18:31;;;;;;;1.65;1.02;;;;;;;30.39;16.03;100001.47;4750702;30;20506;-84
2022/04/20 06:21:12;;;;;;;8.52;1.42;;;;;;;31.22;15.45;100012.78;4737686;30;20055;-85
2022/04/20 06:24:00;;;;;;;7.15;1.58;;;;;;;29.76;15.49;99993.44;4740054;30;20571;-83
2022/04/20 06:26:38;;;;;;;3.10;1.23;;;;;;;29.18;16.91;99940.31;4752451;30;20049;-82
2022/04/20 06:29:35;;;;;;;1.50;1.05;;;;;;;28.52;17.16;99872.63;4727040;30;20071;-84
2022/04/20 06:32:16;;;;;;;2.45;1.10;;;;;;;30.58;15.88;99923.69;4756414;30;20065;-80
2022/04/20 06:35:08;;;;;;;3.65;1.20;;;;;;;31.44;16.18;99889.81;4754670;30;20066;-84
2022/04/20 06:37:51;;;;;;;3.13;1.10;;;;;;;31.89;14.87;99909.75;4760072;30;20200;-82
2022/04/20 06:40:46;;;;;;;1.90;0.93;;;;;;;32.22;15.17;99976.53;4755132;30;20097;-80
2022/04/20 06:43:16;;;;;;;3.42;0.88;;;;;;;32.75;14.87;99959.66;4741661;30;20113;-82
2022/04/20 06:46:20;;;;;;;9.68;1.15;;;;;;;32.47;13.98;99948.06;4738165;30;20052;-79
2022/04/20 06:49:00;;;;;;;25.90;1.97;;;;;;;32.51;14.65;99962.09;4723548;30;20053;-80
2022/04/20 07:00:20;;;;;;;4.05;0.90;;;;;;;33.21;14.72;99904.78;4753858;30;20094;-79
2022/04/20 07:03:07;;;;;;;3.25;1.10;;;;;;;34.47;14.35;99960.03;4725068;30;20053;-80
2022/04/20 07:06:11;;;;;;;2.63;1.20;;;;;;;35.77;13.30;99958.44;4733979;30;20036;-79
2022/04/20 07:08:48;;;;;;;2.92;0.85;;;;;;;35.97;11.98;99948.09;4738823;30;20072;-81
2022/04/20 07:11:18;;;;;;;;;;;;;;;35.33;13.30;99972.38;4726198;30;20050;-82
2022/04/20 07:13:47;;;;;;;1.48;0.90;;;;;;;35.63;13.54;99983.53;4740170;30;19922;-83
2022/04/20 07:16:14;;;;;;;2.42;1.13;;;;;;;35.93;12.43;99973.78;4752237;30;20099;-82
2022/04/20 07:18:44;;;;;;;3.55;1.10;;;;;;;35.69;13.00;99962.03;4737847;30;20049;-83
2022/04/20 07:21:31;;;;;;;5.30;1.08;;;;;;;36.95;12.41;99979.34;4754347;30;20138;-82
2022/04/20 07:24:15;;;;;;;3.30;1.10;;;;;;;37.86;10.83;99935.88;4742100;30;20498;-81
2022/04/20 07:26:53;;;;;;;4.32;1.10;;;;;;;38.28;10.45;99957.91;4741529;30;20104;-81
2022/04/20 07:29:38;;;;;;;5.63;1.27;;;;;;;37.45;11.29;99928.22;4757317;30;20165;-80
2022/04/20 07:32:19;;;;;;;2.17;0.95;;;;;;;37.98;10.95;99945.22;4730323;30;20048;-83
2022/04/20 07:34:57;;;;;;;2.28;1.00;;;;;;;38.50;10.89;99942.47;4741129;30;20052;-82
2022/04/20 07:37:33;;;;;;;5.47;1.60;;;;;;;38.15;10.48;99958.59;4741287;30;20048;-83
2022/04/20 07:40:23;;;;;;;3.72;1.00;;;;;;;36.86;11.37;99955.00;4747060;30;20135;-85
2022/04/20 07:43:18;;;;;;;3.35;1.00;;;;;;;36.64;11.81;99918.75;4738346;30;20456;-83
2022/04/20 07:46:01;;;;;;;17.70;2.13;;;;;;;37.62;11.00;99948.69;4739656;30;20053;-82
2022/04/20 07:48:30;;;;;;;13.73;1.70;;;;;;;36.60;11.10;99915.56;4743272;30;20565;-83
2022/04/20 07:51:17;;;;;;;3.90;0.90;;;;;;;37.38;10.97;99952.50;4754642;30;20055;-82
2022/04/20 07:54:02;;;;;;;6.20;1.80;;;;;;;36.61;10.77;99941.63;4738922;30;20056;-87
2022/04/20 07:56:48;;;;;;;1.63;1.10;;;;;;;37.08;10.41;99868.41;4744347;30;20048;-82
2022/04/20 07:59:49;;;;;;;2.42;1.20;;;;;;;37.64;9.87;99858.97;4747840;30;20136;-81
2022/04/20 08:02:24;;;;;;;2.83;1.02;;;;;;;39.16;9.79;99946.00;4748263;30;20040;-82
2022/04/20 08:05:20;;;;;;;7.20;1.20;;;;;;;39.12;9.15;99934.66;4759550;30;20533;-82
2022/04/20 08:07:46;;;;;;;2.92;1.30;;;;;;;38.66;9.45;99925.09;4731732;30;20056;-80
2022/04/20 08:10:13;;;;;;;4.63;2.83;;;;;;;37.96;9.48;99892.16;4758992;30;20053;-79
2022/04/20 08:12:42;;;;;;;5.93;1.50;;;;;;;38.30;9.55;99897.94;4753721;30;20044;-83
2022/04/20 08:15:13;;;;;;;9.50;2.70;;;;;;;38.04;9.51;99894.78;4737209;30;20052;-81
2022/04/20 08:17:50;;;;;;;4.88;1.73;;;;;;;38.23;9.32;99920.44;4740618;30;20064;-82
2022/04/20 08:20:38;;;;;;;4.80;1.40;;;;;;;38.53;9.12;99919.50;4738439;30;20395;-82
2022/04/20 08:23:04;;;;;;;4.32;1.40;;;;;;;38.53;8.82;99927.66;4752091;30;20044;-81
2022/04/20 08:25:51;;;;;;;2.20;1.20;;;;;;;37.94;9.03;99875.22;4740216;30;20060;-81
2022/04/20 08:28:16;;;;;;;3.25;1.65;;;;;;;37.20;9.91;99872.34;4741693;30;20060;-83
2022/04/20 08:30:44;;;;;;;9.20;1.55;;;;;;;38.48;9.48;99875.81;4755266;30;20055;-81
2022/04/20 08:33:13;;;;;;;9.93;1.60;;;;;;;38.23;8.80;99884.31;4740080;30;20067;-84
2022/04/20 08:35:39;;;;;;;3.92;1.33;;;;;;;37.68;9.14;99873.84;4753202;30;20505;-79
2022/04/20 08:38:08;;;;;;;3.70;1.20;;;;;;;37.01;9.44;99894.56;4753789;30;20147;-83
2022/04/20 08:40:37;;;;;;;10.25;1.58;;;;;;;35.79;9.84;99891.47;4760159;30;20048;-79
2022/04/20 08:43:10;;;;;;;5.53;1.45;;;;;;;35.86;9.82;99875.38;4748296;30;20044;-82
2022/04/20 08:45:39;;;;;;;11.23;1.40;;;;;;;36.16;9.33;99889.97;4763997;30;20043;-82
2022/04/20 08:48:06;;;;;;;11.02;2.40;;;;;;;35.27;9.66;99903.63;4773677;30;20040;-81
2022/04/20 08:50:39;;;;;;;4.82;1.40;;;;;;;34.99;9.91;99902.16;4759222;30;20071;-83
2022/04/20 08:53:05;;;;;;;2.70;1.05;;;;;;;35.47;10.11;99908.66;4732807;30;20182;-81
2022/04/20 08:55:33;;;;;;;4.28;1.10;;;;;;;34.62;10.63;99872.94;4733959;30;20071;-80
2022/04/20 08:58:01;;;;;;;5.75;1.70;;;;;;;34.32;10.53;99854.50;4743250;30;20044;-79
2022/04/20 09:00:28;;;;;;;3.47;1.48;;;;;;;34.20;10.14;99890.94;4759293;30;20059;-83
2022/04/20 09:02:57;;;;;;;4.70;1.40;;;;;;;34.56;10.21;99903.31;4744186;30;20064;-81
2022/04/20 09:05:24;;;;;;;4.25;1.45;;;;;;;34.65;9.94;99888.81;4749355;30;20047;-83
2022/04/20 09:07:50;;;;;;;5.72;1.60;;;;;;;34.83;10.59;99902.97;4736107;30;20070;-82
2022/04/20 09:10:16;;;;;;;2.15;1.42;;;;;;;35.91;10.20;99872.16;4749471;30;20047;-81
2022/04/20 09:12:44;;;;;;;3.42;1.60;;;;;;;37.30;8.96;99873.94;4719773;30;20040;-79
2022/04/20 09:15:14;;;;;;;2.05;1.85;;;;;;;37.13;8.89;99832.59;4743297;30;20052;-82
2022/04/20 09:17:47;;;;;;;2.67;1.88;;;;;;;37.21;8.95;99906.56;4760925;30;20071;-80
2022/04/20 09:20:18;;;;;;;2.88;1.42;;;;;;;37.10;8.61;99885.34;4743728;30;20051;-82
2022/04/20 09:23:03;;;;;;;4.60;1.63;;;;;;;37.92;8.56;99904.44;4742094;30;20507;-80
2022/04/20 09:25:37;;;;;;;6.43;1.55;;;;;;;37.05;7.90;99904.03;4769855;30;20047;-80
2022/04/20 09:28:04;;;;;;;11.00;1.90;;;;;;;36.95;8.64;99911.59;4742429;30;20047;-82
2022/04/20 09:30:39;;;;;;;5.43;2.00;;;;;;;37.30;7.61;99910.03;4762738;30;20073;-79
2022/04/20 09:33:07;;;;;;;8.02;1.50;;;;;;;37.43;8.85;99914.00;4734366;30;20552;-82
2022/04/20 09:35:59;;;;;;;8.43;1.73;;;;;;;37.33;8.52;99920.50;4730654;30;20077;-81
2022/04/20 09:38:28;;;;;;;5.47;1.67;;;;;;;36.89;8.15;99913.13;4763488;30;20065;-80
2022/04/20 09:41:05;;;;;;;5.72;1.63;;;;;;;36.85;8.50;99890.13;4758003;30;20054;-81
2022/04/20 09:43:31;;;;;;;4.65;1.30;;;;;;;36.84;8.30;99910.97;4758180;30;20055;-78
2022/04/20 09:49:09;;;;;;;2.67;1.50;;;;;;;37.23;7.29;99907.22;4761627;30;20055;-81
2022/04/20 09:51:37;;;;;;;7.45;2.38;;;;;;;34.62;8.20;99886.44;4748668;30;20048;-79
2022/04/20 09:54:03;;;;;;;14.95;2.13;;;;;;;32.65;8.64;99882.63;4759749;30;20058;-81
2022/04/20 09:56:32;;;;;;;12.98;2.00;;;;;;;31.69;9.03;99852.47;4759874;30;20137;-81
2022/04/20 09:59:04;;;;;;;8.07;2.10;;;;;;;32.55;9.17;99912.34;4760234;30;20063;-82
2022/04/20 10:01:36;;;;;;;5.78;1.88;;;;;;;32.56;9.30;99869.09;4760672;30;20131;-82
2022/04/20 10:04:04;;;;;;;3.08;1.92;;;;;;;34.04;8.89;99908.75;4756704;30;20086;-83
2022/04/20 10:06:30;;;;;;;6.78;2.17;;;;;;;34.71;8.68;99888.13;4740797;30;20133;-83
2022/04/20 10:08:57;;;;;;;4.95;1.83;;;;;;;35.36;8.29;99886.38;4740452;30;20049;-78
2022/04/20 10:11:23;;;;;;;4.90;1.80;;;;;;;35.04;8.35;99915.16;4742710;30;20040;-82
2022/04/20 10:16:58;;;;;;;6.15;2.00;;;;;;;34.97;8.09;99915.00;4723719;30;20520;-85
2022/04/20 10:19:28;;;;;;;11.18;2.45;;;;;;;34.77;7.95;99903.66;4746214;30;20059;-83
2022/04/20 10:21:55;;;;;;;3.05;1.40;;;;;;;34.93;7.84;99888.47;4760428;29;20048;-83
2022/04/20 10:24:37;;;;;;;;;;;;;;;34.16;7.94;99905.78;4758929;30;20097;-83
2022/04/20 10:27:13;;;;;;;4.25;1.55;;;;;;;33.26;8.77;99883.56;4746865;30;19922;-81
2022/04/20 10:30:01;;;;;;;14.90;1.48;;;;;;;32.70;8.42;99897.31;4725197;30;20553;-82
2022/04/20 10:32:37;;;;;;;8.45;1.80;;;;;;;31.74;9.09;99904.00;4739296;30;20051;-80
2022/04/20 10:35:09;;;;;;;6.55;1.65;;;;;;;29.85;9.57;99911.34;4751746;30;20550;-79
2022/04/20 10:37:42;;;;;;;5.38;2.08;;;;;;;28.69;10.67;99870.34;4727791;30;20058;-79
2022/04/20 10:40:19;;;;;;;6.90;1.85;;;;;;;28.15;11.29;99880.97;4743046;30;20068;-82
2022/04/20 10:43:17;;;;;;;2.47;1.55;;;;;;;27.13;12.23;99897.84;4751158;30;20083;-80
2022/04/20 10:46:06;;;;;;;4.85;1.58;;;;;;;26.54;12.59;99910.22;4751110;30;20040;-86
2022/04/20 10:48:42;;;;;;;5.30;1.65;;;;;;;25.61;12.32;99903.50;4735545;30;20044;-80
2022/04/20 10:51:16;;;;;;;5.57;1.95;;;;;;;25.03;12.71;99911.03;4726985;30;20080;-80
2022/04/20 10:53:50;;;;;;;5.63;1.92;;;;;;;24.28;13.43;99905.22;4736442;30;20134;-80
2022/04/20 10:56:19;;;;;;;3.65;1.60;;;;;;;23.65;13.80;99893.22;4728548;30;20143;-81
2022/04/20 10:59:11;;;;;;;3.90;1.63;;;;;;;23.28;14.00;99912.31;4750974;30;20495;-83
2022/04/20 11:02:06;;;;;;;8.13;1.50;;;;;;;22.97;14.40;99919.38;4720671;30;20062;-78
2022/04/20 11:04:50;;;;;;;10.05;2.17;;;;;;;22.54;14.07;99909.47;4721086;30;20048;-80
2022/04/20 11:07:26;;;;;;;6.68;1.30;;;;;;;21.77;15.22;99919.84;4728748;30;20139;-78
2022/04/20 11:09:59;;;;;;;1.75;1.40;;;;;;;21.24;15.82;99911.97;4751749;30;20043;-80
2022/04/20 11:21:20;;;;;;;16.80;9.68;;;;;;;20.54;16.63;99914.53;4748139;30;20044;-81
2022/04/20 11:23:53;;;;;;;11.68;5.75;;;;;;;20.43;16.68;99905.34;4735632;30;20052;-82
2022/04/20 11:26:21;;;;;;;10.45;2.92;;;;;;;20.35;16.80;99889.00;4739058;30;20096;-81
2022/04/20 11:28:48;;;;;;;5.32;1.40;;;;;;;20.22;16.89;99901.06;4746270;30;20158;-80
2022/04/20 11:31:20;;;;;;;5.30;1.35;;;;;;;19.98;17.09;99918.03;4757501;30;20043;-79
2022/04/20 11:33:51;;;;;;;3.03;1.30;;;;;;;19.46;17.38;99852.59;4754123;30;20052;-77
2022/04/20 11:36:18;;;;;;;6.47;1.52;;;;;;;19.60;17.26;99885.41;4756419;30;20141;-81
2022/04/20 11:38:48;;;;;;;8.80;1.30;;;;;;;19.39;17.35;99873.13;4755268;30;20409;-81
2022/04/20 11:41:19;;;;;;;6.22;1.30;;;;;;;19.38;17.51;99887.25;4742109;30;20187;-82
2022/04/20 11:43:49;;;;;;;5.63;1.92;;;;;;;19.39;17.55;99881.03;4728491;30;20043;-78
2022/04/20 11:46:17;;;;;;;5.03;1.85;;;;;;;19.26;17.04;99830.59;4725934;30;20047;-85
2022/04/20 11:48:54;;;;;;;2.58;1.50;;;;;;;19.53;16.76;99880.41;4718300;30;20054;-81
2022/04/20 11:51:31;;;;;;;6.40;1.50;;;;;;;18.70;16.91;99778.53;4741379;30;20052;-80
2022/04/20 11:53:58;;;;;;;3.42;1.20;;;;;;;18.77;17.71;99849.34;4756145;30;20048;-82
2022/04/20 11:56:51;;;;;;;2.60;1.10;;;;;;;18.82;17.68;99857.09;4746143;30;20070;-81
2022/04/20 11:59:24;;;;;;;7.53;1.42;;;;;;;18.74;17.79;99875.00;4751955;30;20302;-82
2022/04/20 12:01:51;;;;;;;6.78;1.70;;;;;;;18.46;17.62;99873.47;4761621;30;20044;-78
2022/04/20 12:04:18;;;;;;;5.72;1.20;;;;;;;18.30;17.79;99878.53;4766590;30;20444;-78
2022/04/20 12:06:52;;;;;;;6.72;1.35;;;;;;;18.35;18.30;99873.91;4759901;30;20134;-81
2022/04/20 12:09:24;;;;;;;7.57;1.48;;;;;;;17.80;18.16;99783.00;4714846;30;20054;-79
2022/04/20 12:11:55;;;;;;;8.98;1.65;;;;;;;18.25;18.07;99847.09;4723308;30;20536;-81
2022/04/20 12:14:34;;;;;;;2.85;1.30;;;;;;;18.30;18.37;99860.09;4754738;30;20062;-78
2022/04/20 12:17:10;;;;;;;3.55;1.45;;;;;;;18.03;18.29;99818.97;4755241;30;20151;-82
2022/04/20 12:19:44;;;;;;;4.35;1.20;;;;;;;18.16;18.49;99847.47;4746194;30;20047;-81
2022/04/20 12:22:12;;;;;;;4.07;1.58;;;;;;;18.22;18.65;99857.75;4745022;30;20048;-81
2022/04/20 12:24:38;;;;;;;8.77;1.42;;;;;;;17.97;19.02;99828.88;4740342;30;20047;-82
2022/04/20 12:27:16;;;;;;;3.85;1.40;;;;;;;17.94;18.96;99837.75;4740268;30;20087;-82
2022/04/20 12:29:45;;;;;;;2.60;1.25;;;;;;;17.74;19.25;99828.84;4756302;30;20169;-81
2022/04/20 12:32:23;;;;;;;3.33;1.25;;;;;;;17.01;19.59;99772.81;4739870;30;20047;-82
2022/04/20 12:34:54;;;;;;;5.38;1.45;;;;;;;17.18;19.64;99806.38;4734467;30;20056;-78
2022/04/20 12:37:29;;;;;;;6.93;1.50;;;;;;;17.43;19.45;99835.25;4748340;30;20052;-80
2022/04/20 12:40:18;;;;;;;6.68;1.50;;;;;;;17.54;19.51;99840.13;4751021;30;20052;-80